Time;durP1;ratioP1;P1;durP2;ratioP2;P2;SDS_P1;SDS_P2;PMS_P1;PMS_P2;Temp;Humidity;BMP_temperature;BMP_pressure;BME280_temperature;BME280_humidity;BME280_pressure;Samples;Min_cycle;Max_cycle;Signal;HPM_P1;HPM_P2
2022/08/30 00:02:56;;;;;;;8.55;2.33;;;17.40;99.90;;;;;;5051697;28;20256;-55
2022/08/30 00:05:22;;;;;;;9.00;1.75;;;17.40;99.90;;;;;;5051506;28;20201;-55
2022/08/30 00:07:48;;;;;;;7.47;2.28;;;17.30;99.90;;;;;;5051490;28;20201;-56
2022/08/30 00:10:14;;;;;;;7.07;2.35;;;17.30;99.90;;;;;;5051545;28;20180;-56
2022/08/30 00:12:42;;;;;;;7.07;2.15;;;17.30;99.90;;;;;;5051321;28;20199;-56
2022/08/30 00:15:08;;;;;;;9.93;2.05;;;17.20;99.90;;;;;;5051359;28;20639;-56
2022/08/30 00:17:34;;;;;;;12.23;2.30;;;17.20;99.90;;;;;;5051268;28;20319;-55
2022/08/30 00:20:01;;;;;;;8.27;1.98;;;17.10;99.90;;;;;;5051234;28;20260;-55
2022/08/30 00:22:26;;;;;;;6.68;1.55;;;17.10;99.90;;;;;;5051163;28;20632;-54
2022/08/30 00:24:52;;;;;;;7.40;2.10;;;17.10;99.90;;;;;;5051299;28;20388;-55
2022/08/30 00:27:18;;;;;;;6.57;2.03;;;17.10;99.90;;;;;;5051057;28;20204;-55
2022/08/30 00:29:43;;;;;;;9.00;2.00;;;17.00;99.90;;;;;;5051007;28;20273;-54
2022/08/30 00:32:10;;;;;;;7.05;2.10;;;16.90;99.90;;;;;;5051039;28;20246;-55
2022/08/30 00:34:35;;;;;;;6.93;2.13;;;16.90;99.90;;;;;;5051165;28;20201;-56
2022/08/30 00:37:01;;;;;;;9.20;2.03;;;16.90;99.90;;;;;;5050868;28;20248;-55
2022/08/30 00:39:27;;;;;;;4.50;2.22;;;16.80;99.90;;;;;;5050954;28;20169;-55
2022/08/30 00:41:52;;;;;;;7.25;1.70;;;16.80;99.90;;;;;;5050909;28;20166;-55
2022/08/30 00:44:18;;;;;;;5.80;2.03;;;16.80;99.90;;;;;;5050864;28;20183;-54
2022/08/30 00:46:44;;;;;;;4.63;1.90;;;16.80;99.90;;;;;;5050948;28;20173;-55
2022/08/30 00:49:12;;;;;;;7.97;2.10;;;16.80;99.90;;;;;;5050815;28;20251;-55
2022/08/30 00:51:39;;;;;;;5.05;1.80;;;16.70;99.90;;;;;;5050894;28;20177;-55
2022/08/30 00:54:06;;;;;;;7.28;2.20;;;16.70;99.90;;;;;;5050763;28;20173;-55
2022/08/30 00:56:34;;;;;;;6.38;2.10;;;16.70;99.90;;;;;;5050495;28;20169;-54
2022/08/30 00:59:02;;;;;;;6.47;2.33;;;16.70;99.90;;;;;;5050900;28;20181;-55
2022/08/30 01:01:28;;;;;;;7.30;2.05;;;16.70;99.90;;;;;;5050224;28;20252;-54
2022/08/30 01:03:54;;;;;;;6.00;2.17;;;16.60;99.90;;;;;;5050724;28;20235;-54
2022/08/30 01:06:20;;;;;;;10.95;2.05;;;16.70;99.90;;;;;;5050640;28;20173;-54
2022/08/30 01:08:47;;;;;;;7.15;1.70;;;16.60;99.90;;;;;;5082698;28;20266;-54
2022/08/30 01:11:15;;;;;;;8.07;1.92;;;16.60;99.90;;;;;;5050566;28;20177;-54
2022/08/30 01:13:42;;;;;;;6.45;2.15;;;16.60;99.90;;;;;;5050588;28;20307;-54
2022/08/30 01:16:09;;;;;;;3.65;1.63;;;16.60;99.90;;;;;;5050419;28;20537;-54
2022/08/30 01:18:35;;;;;;;5.65;1.90;;;16.60;99.90;;;;;;5050584;28;20165;-55
2022/08/30 01:21:05;;;;;;;6.53;1.50;;;16.50;99.90;;;;;;5050525;28;20200;-55
2022/08/30 01:23:34;;;;;;;8.05;1.90;;;16.50;99.90;;;;;;5050655;28;20258;-54
2022/08/30 01:26:01;;;;;;;11.63;2.40;;;16.40;99.90;;;;;;5050570;28;20173;-55
2022/08/30 01:28:29;;;;;;;11.90;2.22;;;16.40;99.90;;;;;;5050357;28;20211;-54
2022/08/30 01:30:55;;;;;;;8.75;2.45;;;16.40;99.90;;;;;;5050502;28;20185;-55
2022/08/30 01:33:21;;;;;;;6.55;1.80;;;16.30;99.90;;;;;;5050377;28;20552;-55
2022/08/30 01:35:53;;;;;;;4.78;2.20;;;16.30;99.90;;;;;;5050250;28;20178;-59
2022/08/30 01:38:23;;;;;;;4.25;1.73;;;16.30;99.90;;;;;;5050472;28;20552;-55
2022/08/30 01:40:49;;;;;;;6.47;2.05;;;16.30;99.90;;;;;;5050351;28;20169;-54
2022/08/30 01:43:17;;;;;;;6.38;1.92;;;16.30;99.90;;;;;;5050490;28;20216;-54
2022/08/30 01:45:42;;;;;;;5.60;2.33;;;16.20;99.90;;;;;;5050180;28;20655;-54
2022/08/30 01:48:11;;;;;;;4.82;1.98;;;16.20;99.90;;;;;;5050176;28;20213;-53
2022/08/30 01:50:38;;;;;;;8.05;1.90;;;16.20;99.90;;;;;;5050158;28;20188;-54
2022/08/30 01:53:04;;;;;;;6.32;2.15;;;16.30;99.90;;;;;;5050121;28;20173;-54
2022/08/30 01:55:30;;;;;;;5.85;1.88;;;16.20;99.90;;;;;;5050365;28;20201;-54
2022/08/30 01:57:56;;;;;;;10.90;2.22;;;16.10;99.90;;;;;;5050261;28;20195;-55
2022/08/30 02:00:21;;;;;;;6.75;1.92;;;16.20;99.90;;;;;;5050278;28;20655;-54
2022/08/30 02:02:48;;;;;;;5.63;2.10;;;16.10;99.90;;;;;;5050075;28;20695;-55
2022/08/30 02:05:14;;;;;;;6.13;2.15;;;16.10;99.90;;;;;;5050019;28;20177;-54
2022/08/30 02:07:40;;;;;;;7.50;2.08;;;16.00;99.90;;;;;;5049832;28;20691;-55
2022/08/30 02:10:07;;;;;;;3.63;1.90;;;16.00;99.90;;;;;;5050046;28;20188;-54
2022/08/30 02:12:33;;;;;;;5.22;2.30;;;16.00;99.90;;;;;;5050143;28;20166;-54
2022/08/30 02:14:59;;;;;;;5.93;2.33;;;16.00;99.90;;;;;;5053707;28;20203;-55
2022/08/30 02:17:25;;;;;;;7.30;2.03;;;16.00;99.90;;;;;;5053501;28;20691;-55
2022/08/30 02:19:51;;;;;;;6.38;2.05;;;15.90;99.90;;;;;;5053974;28;20528;-54
2022/08/30 02:22:17;;;;;;;5.90;1.92;;;15.90;99.90;;;;;;5053686;28;20177;-55
2022/08/30 02:24:43;;;;;;;3.55;1.90;;;15.90;99.90;;;;;;5053753;28;20736;-55
2022/08/30 02:27:08;;;;;;;7.97;2.05;;;15.70;99.90;;;;;;5053344;28;20719;-54
2022/08/30 02:29:34;;;;;;;8.88;2.00;;;15.70;99.90;;;;;;5053375;28;20181;-54
2022/08/30 02:32:00;;;;;;;5.70;2.15;;;15.70;99.90;;;;;;5053286;28;20218;-55
2022/08/30 02:34:26;;;;;;;6.05;2.55;;;15.70;99.90;;;;;;5053224;28;20259;-54
2022/08/30 02:36:51;;;;;;;5.80;2.00;;;15.60;99.90;;;;;;5052976;28;20651;-54
2022/08/30 02:39:17;;;;;;;8.73;2.50;;;15.60;99.90;;;;;;5053234;28;20169;-54
2022/08/30 02:41:43;;;;;;;7.53;2.05;;;15.60;99.90;;;;;;5053199;28;20674;-54
2022/08/30 02:44:10;;;;;;;7.57;2.13;;;15.60;99.90;;;;;;5052967;28;20535;-54
2022/08/30 02:46:36;;;;;;;6.00;2.35;;;15.60;99.90;;;;;;5053045;28;20177;-54
2022/08/30 02:49:02;;;;;;;3.42;1.92;;;15.50;99.90;;;;;;5052882;28;20208;-53
2022/08/30 02:51:28;;;;;;;5.95;2.30;;;15.50;99.90;;;;;;5053112;28;20890;-54
2022/08/30 02:53:53;;;;;;;4.57;2.10;;;15.50;99.90;;;;;;5052865;28;20211;-54
2022/08/30 02:56:19;;;;;;;5.38;1.95;;;15.40;99.90;;;;;;5052918;28;20185;-54
2022/08/30 02:58:44;;;;;;;6.72;2.00;;;15.40;99.90;;;;;;5052729;28;20169;-54
2022/08/30 03:01:12;;;;;;;6.78;1.98;;;15.40;99.90;;;;;;5052757;28;20169;-54
2022/08/30 03:03:39;;;;;;;4.45;1.98;;;15.40;99.90;;;;;;5052718;28;20234;-54
2022/08/30 03:06:05;;;;;;;11.88;2.03;;;15.40;99.90;;;;;;5052653;28;20169;-55
2022/08/30 03:08:31;;;;;;;9.10;2.13;;;15.40;99.90;;;;;;5052626;28;20212;-54
2022/08/30 03:10:58;;;;;;;4.25;2.00;;;15.30;99.90;;;;;;5052701;28;20674;-54
2022/08/30 03:13:25;;;;;;;4.05;2.10;;;15.20;99.90;;;;;;5052624;28;20263;-54
2022/08/30 03:15:50;;;;;;;6.72;1.95;;;15.20;99.90;;;;;;5052410;28;20726;-55
2022/08/30 03:18:17;;;;;;;6.75;2.03;;;15.20;99.90;;;;;;5052230;28;20207;-55
2022/08/30 03:20:43;;;;;;;6.15;2.17;;;15.20;99.90;;;;;;5052407;28;20235;-54
2022/08/30 03:23:08;;;;;;;6.50;2.17;;;15.20;99.90;;;;;;5050873;28;20184;-55
2022/08/30 03:25:34;;;;;;;5.30;1.85;;;15.20;99.90;;;;;;5052040;28;20177;-54
2022/08/30 03:28:00;;;;;;;9.52;1.80;;;15.20;99.90;;;;;;5052177;28;20213;-54
2022/08/30 03:30:26;;;;;;;6.03;2.08;;;15.20;99.90;;;;;;5052192;28;20169;-53
2022/08/30 03:32:52;;;;;;;6.15;2.03;;;15.20;99.90;;;;;;5052118;28;20173;-55
2022/08/30 03:35:18;;;;;;;4.82;1.70;;;15.20;99.90;;;;;;5052168;28;20169;-54
2022/08/30 03:37:45;;;;;;;7.10;2.25;;;15.30;99.90;;;;;;5051808;28;20260;-54
2022/08/30 03:40:12;;;;;;;4.72;1.73;;;15.30;99.90;;;;;;5052038;28;20248;-54
2022/08/30 03:42:37;;;;;;;5.97;1.77;;;15.30;99.90;;;;;;5051959;28;20641;-55
2022/08/30 03:45:04;;;;;;;7.03;2.50;;;15.30;99.90;;;;;;5051764;28;20180;-53
2022/08/30 03:47:30;;;;;;;7.80;2.30;;;15.40;99.90;;;;;;5051869;28;20199;-55
2022/08/30 03:49:56;;;;;;;6.75;2.10;;;15.40;99.90;;;;;;5051805;28;20552;-54
2022/08/30 03:52:22;;;;;;;7.78;2.25;;;15.40;99.90;;;;;;5051987;28;20180;-55
2022/08/30 03:54:48;;;;;;;7.20;2.20;;;15.30;99.90;;;;;;5051673;28;20177;-53
2022/08/30 03:57:13;;;;;;;5.93;2.13;;;15.40;99.90;;;;;;5051682;28;20165;-54
2022/08/30 03:59:39;;;;;;;6.30;2.13;;;15.40;99.90;;;;;;5083428;28;20266;-54
2022/08/30 04:02:05;;;;;;;2.55;1.70;;;15.40;99.90;;;;;;5051584;28;20172;-55
2022/08/30 04:04:31;;;;;;;6.20;1.75;;;15.40;99.90;;;;;;5051562;28;20586;-54
2022/08/30 04:06:57;;;;;;;11.07;2.75;;;15.40;99.90;;;;;;5051743;28;20208;-55
2022/08/30 04:09:23;;;;;;;7.82;2.42;;;15.40;99.90;;;;;;5051548;28;20733;-54
2022/08/30 04:11:49;;;;;;;3.90;2.08;;;15.40;99.90;;;;;;5083705;28;20184;-55
2022/08/30 04:14:15;;;;;;;6.55;2.58;;;15.40;99.90;;;;;;5051406;28;20169;-53
2022/08/30 04:16:41;;;;;;;5.03;1.85;;;15.30;99.90;;;;;;5051347;28;20192;-55
2022/08/30 04:19:07;;;;;;;6.22;1.83;;;15.30;99.90;;;;;;5051257;28;20517;-54
2022/08/30 04:21:33;;;;;;;9.90;2.00;;;15.20;99.90;;;;;;5051356;28;20193;-54
2022/08/30 04:23:58;;;;;;;8.80;2.25;;;15.20;99.90;;;;;;5051202;28;20273;-55
2022/08/30 04:26:24;;;;;;;4.55;1.92;;;15.10;99.90;;;;;;5051354;28;20552;-55
2022/08/30 04:28:52;;;;;;;2.63;1.80;;;15.10;99.90;;;;;;5051107;28;20216;-54
2022/08/30 04:31:18;;;;;;;5.57;1.98;;;15.00;99.90;;;;;;5050966;28;20173;-54
2022/08/30 04:33:43;;;;;;;6.28;1.85;;;15.10;99.90;;;;;;5051044;28;20212;-54
2022/08/30 04:36:10;;;;;;;3.70;1.85;;;15.00;99.90;;;;;;5050175;28;20165;-54
2022/08/30 04:38:38;;;;;;;4.53;1.98;;;15.00;99.90;;;;;;5050926;28;20260;-54
2022/08/30 04:41:10;;;;;;;8.43;2.08;;;15.00;99.90;;;;;;5050849;28;20547;-53
2022/08/30 04:43:36;;;;;;;7.93;1.95;;;15.00;99.90;;;;;;5050843;28;20200;-54
2022/08/30 04:46:06;;;;;;;7.30;2.50;;;14.90;99.90;;;;;;5050974;28;20569;-54
2022/08/30 04:48:32;;;;;;;5.45;2.35;;;14.80;99.90;;;;;;5050733;28;20197;-54
2022/08/30 04:50:57;;;;;;;7.47;1.98;;;14.80;99.90;;;;;;5050918;28;20226;-53
2022/08/30 04:53:23;;;;;;;7.22;2.25;;;14.80;99.90;;;;;;5050913;28;20704;-54
2022/08/30 04:55:49;;;;;;;6.20;2.10;;;14.70;99.90;;;;;;5050860;28;20177;-55
2022/08/30 04:58:14;;;;;;;9.00;2.55;;;14.60;99.90;;;;;;5050690;28;20701;-54
2022/08/30 05:00:43;;;;;;;6.18;2.00;;;14.60;99.90;;;;;;5050742;28;20268;-54
2022/08/30 05:03:08;;;;;;;5.40;2.30;;;14.60;99.90;;;;;;5050730;28;20648;-54
2022/08/30 05:05:40;;;;;;;6.85;2.50;;;14.50;99.90;;;;;;5050661;28;20173;-54
2022/08/30 05:08:11;;;;;;;5.43;2.70;;;14.50;99.90;;;;;;5050554;28;20232;-54
2022/08/30 05:10:42;;;;;;;7.15;2.47;;;14.50;99.90;;;;;;5050631;28;20196;-54
2022/08/30 05:13:09;;;;;;;10.38;2.58;;;14.50;99.90;;;;;;5050504;28;20185;-54
2022/08/30 05:15:35;;;;;;;4.70;2.33;;;14.50;99.90;;;;;;5050578;28;20256;-55
2022/08/30 05:18:01;;;;;;;5.93;2.30;;;14.50;99.90;;;;;;5050515;28;20252;-54
2022/08/30 05:20:27;;;;;;;6.10;2.22;;;14.50;99.90;;;;;;5050554;28;20220;-55
2022/08/30 05:22:53;;;;;;;5.13;2.35;;;14.50;99.90;;;;;;5050546;28;20173;-54
2022/08/30 05:25:21;;;;;;;8.60;2.78;;;14.40;99.90;;;;;;5050338;28;20547;-55
2022/08/30 05:27:47;;;;;;;10.85;2.50;;;14.40;99.90;;;;;;5050350;28;20220;-55
2022/08/30 05:30:15;;;;;;;4.85;2.20;;;14.30;99.90;;;;;;5050254;28;20173;-55
2022/08/30 05:32:41;;;;;;;8.38;2.85;;;14.30;99.90;;;;;;5050376;28;20216;-55
2022/08/30 05:35:09;;;;;;;11.65;3.00;;;14.30;99.90;;;;;;5050356;28;20181;-55
2022/08/30 05:37:36;;;;;;;7.55;2.78;;;14.30;99.90;;;;;;5050002;28;20679;-54
2022/08/30 05:40:04;;;;;;;11.10;2.85;;;14.30;99.90;;;;;;5050377;28;20178;-56
2022/08/30 05:42:30;;;;;;;10.15;2.65;;;14.30;99.90;;;;;;5050310;28;20212;-55
2022/08/30 05:44:56;;;;;;;7.45;2.92;;;14.30;99.90;;;;;;5050396;28;20225;-54
2022/08/30 05:47:22;;;;;;;8.00;3.00;;;14.30;99.90;;;;;;5051903;28;20187;-55
2022/08/30 05:49:48;;;;;;;6.68;3.15;;;14.40;99.90;;;;;;5054239;28;20181;-55
2022/08/30 05:52:16;;;;;;;6.88;2.40;;;14.40;99.90;;;;;;5054142;28;20663;-54
2022/08/30 05:54:43;;;;;;;13.82;3.08;;;14.50;99.90;;;;;;5053985;28;20187;-55
2022/08/30 05:57:09;;;;;;;5.32;2.58;;;14.50;99.90;;;;;;5054218;28;20303;-55
2022/08/30 05:59:34;;;;;;;5.68;2.95;;;14.50;99.90;;;;;;5054005;28;20200;-55
2022/08/30 06:02:00;;;;;;;5.45;2.80;;;14.50;99.90;;;;;;5053862;28;20654;-56
2022/08/30 06:04:26;;;;;;;7.10;3.00;;;14.50;99.90;;;;;;5053908;28;20619;-55
2022/08/30 06:06:51;;;;;;;7.45;2.83;;;14.50;99.90;;;;;;5053729;28;20201;-54
2022/08/30 06:09:17;;;;;;;7.90;2.58;;;14.50;99.90;;;;;;5053772;28;20262;-55
2022/08/30 06:11:44;;;;;;;8.45;2.72;;;14.60;99.90;;;;;;5053750;28;20173;-55
2022/08/30 06:14:11;;;;;;;7.40;2.75;;;14.60;99.90;;;;;;5053655;28;20193;-55
2022/08/30 06:16:38;;;;;;;6.43;2.38;;;14.60;99.90;;;;;;5053774;28;20276;-54
2022/08/30 06:19:07;;;;;;;4.95;2.72;;;14.60;99.90;;;;;;5053647;28;20227;-58
2022/08/30 06:21:34;;;;;;;5.20;2.92;;;14.60;99.90;;;;;;5053563;28;20184;-55
2022/08/30 06:24:01;;;;;;;11.13;4.15;;;14.70;99.90;;;;;;5053806;28;20235;-55
2022/08/30 06:26:28;;;;;;;5.55;2.65;;;14.70;99.90;;;;;;5053510;28;20177;-55
2022/08/30 06:28:55;;;;;;;6.80;3.13;;;14.70;99.90;;;;;;5053361;28;20251;-55
2022/08/30 06:31:22;;;;;;;6.75;2.50;;;14.70;99.90;;;;;;5053499;28;20303;-56
2022/08/30 06:33:49;;;;;;;10.18;2.80;;;14.70;99.90;;;;;;5053728;28;20713;-54
2022/08/30 06:36:18;;;;;;;6.03;2.50;;;14.80;99.90;;;;;;5053485;28;20169;-55
2022/08/30 06:38:44;;;;;;;11.05;2.40;;;14.80;99.90;;;;;;5053420;28;20239;-55
2022/08/30 06:41:13;;;;;;;8.18;2.85;;;14.90;99.90;;;;;;5085557;28;20184;-55
2022/08/30 06:43:40;;;;;;;9.05;2.80;;;14.90;99.90;;;;;;5053107;28;20517;-54
2022/08/30 06:46:10;;;;;;;6.43;2.30;;;15.00;99.90;;;;;;5053157;28;20172;-54
2022/08/30 06:48:36;;;;;;;12.82;2.50;;;15.00;99.90;;;;;;5052912;28;20215;-55
2022/08/30 06:51:03;;;;;;;14.60;2.47;;;15.10;99.90;;;;;;5052974;28;20207;-54
2022/08/30 06:53:29;;;;;;;9.10;2.58;;;15.20;99.90;;;;;;5053062;28;20451;-54
2022/08/30 06:56:22;;;;;;;13.93;2.30;;;15.30;99.90;;;;;;5053035;28;20178;-54
2022/08/30 06:58:49;;;;;;;11.60;2.33;;;15.30;99.90;;;;;;5050760;28;20188;-55
2022/08/30 07:01:18;;;;;;;16.52;2.65;;;15.40;99.90;;;;;;5052790;28;20165;-56
2022/08/30 07:03:44;;;;;;;9.02;2.58;;;15.50;99.90;;;;;;5052721;28;20540;-55
2022/08/30 07:06:10;;;;;;;6.32;2.10;;;15.60;99.90;;;;;;5052714;28;20166;-55
2022/08/30 07:08:36;;;;;;;8.63;2.40;;;15.80;99.90;;;;;;5052722;28;20209;-56
2022/08/30 07:11:04;;;;;;;5.68;2.15;;;15.90;99.90;;;;;;5052650;28;20620;-55
2022/08/30 07:13:30;;;;;;;7.13;2.08;;;16.10;99.90;;;;;;5052589;28;20185;-53
2022/08/30 07:15:55;;;;;;;9.35;2.50;;;16.40;99.90;;;;;;5052621;28;20639;-55
2022/08/30 07:21:12;;;;;;;5.65;2.50;;;16.60;99.90;;;;;;5052645;28;20199;-55
2022/08/30 07:23:38;;;;;;;11.18;2.47;;;16.80;99.90;;;;;;5052411;28;20308;-55
2022/08/30 07:26:09;;;;;;;8.02;2.60;;;16.80;99.90;;;;;;5052130;28;20253;-54
2022/08/30 07:28:40;;;;;;;11.00;2.17;;;16.80;99.90;;;;;;5052155;28;20208;-54
2022/08/30 07:31:07;;;;;;;8.68;2.35;;;16.80;99.90;;;;;;5052162;28;20180;-55
2022/08/30 07:33:32;;;;;;;7.38;2.38;;;16.80;99.90;;;;;;5052184;28;20620;-56
2022/08/30 07:35:59;;;;;;;5.57;2.90;;;16.80;99.90;;;;;;5052133;28;20211;-55
2022/08/30 07:38:25;;;;;;;12.65;3.33;;;16.70;99.90;;;;;;5051873;28;20203;-54
2022/08/30 07:40:51;;;;;;;12.50;3.50;;;16.70;99.90;;;;;;5052017;28;20172;-55
2022/08/30 07:43:17;;;;;;;6.80;3.38;;;16.70;99.90;;;;;;5051749;28;20590;-55
2022/08/30 07:45:43;;;;;;;13.15;6.10;;;16.70;99.90;;;;;;5052240;28;20877;-55
2022/08/30 07:48:10;;;;;;;22.25;10.45;;;16.70;99.90;;;;;;5084123;28;20216;-55
2022/08/30 07:50:37;;;;;;;9.77;4.10;;;16.70;99.90;;;;;;5051806;28;20173;-54
2022/08/30 07:53:03;;;;;;;6.82;2.42;;;16.80;99.90;;;;;;5051842;28;20184;-55
2022/08/30 07:55:29;;;;;;;4.88;2.20;;;16.80;99.90;;;;;;5051823;28;20165;-55
2022/08/30 07:57:55;;;;;;;8.10;2.55;;;16.80;99.90;;;;;;5051682;28;20176;-55
2022/08/30 08:00:20;;;;;;;6.20;2.88;;;17.00;99.90;;;;;;5051745;28;20173;-55
2022/08/30 08:02:46;;;;;;;7.95;3.20;;;17.00;99.90;;;;;;5051595;28;20192;-55
2022/08/30 08:05:13;;;;;;;11.25;3.25;;;17.10;99.90;;;;;;5051692;28;20204;-54
2022/08/30 08:07:39;;;;;;;10.93;3.15;;;17.30;99.90;;;;;;5051490;28;20279;-55
2022/08/30 08:10:05;;;;;;;12.90;3.38;;;17.50;99.90;;;;;;5051488;28;20276;-56
2022/08/30 08:12:30;;;;;;;11.68;2.75;;;17.70;99.90;;;;;;5051470;28;20592;-55
2022/08/30 08:14:56;;;;;;;7.82;2.40;;;17.90;99.90;;;;;;5051348;28;20230;-56
2022/08/30 08:17:22;;;;;;;7.03;2.33;;;18.50;99.90;;;;;;5051420;28;20170;-56
2022/08/30 08:19:47;;;;;;;5.20;1.90;;;19.50;99.90;;;;;;5051328;28;20663;-56
2022/08/30 08:22:13;;;;;;;6.97;2.05;;;20.60;99.90;;;;;;5051239;28;20291;-56
2022/08/30 08:24:39;;;;;;;6.82;1.98;;;21.80;99.90;;;;;;5051235;28;20252;-54
2022/08/30 08:27:04;;;;;;;5.32;1.73;;;23.00;99.90;;;;;;5051144;28;20169;-55
2022/08/30 08:29:30;;;;;;;7.65;2.20;;;23.80;99.90;;;;;;5051107;28;20208;-55
2022/08/30 08:31:56;;;;;;;6.47;1.70;;;24.30;99.90;;;;;;5051222;28;20484;-56
2022/08/30 08:34:22;;;;;;;11.18;1.95;;;24.60;99.90;;;;;;5051044;28;20200;-56
2022/08/30 08:36:49;;;;;;;7.85;2.03;;;25.00;99.90;;;;;;5051039;28;20695;-55
2022/08/30 08:39:16;;;;;;;7.03;2.08;;;25.10;99.90;;;;;;5050932;28;20176;-55
2022/08/30 08:42:21;;;;;;;10.27;2.05;;;25.10;99.90;;;;;;5050921;28;20201;-56
2022/08/30 08:44:58;;;;;;;10.35;1.73;;;25.30;99.90;;;;;;5050804;28;20628;-56
2022/08/30 08:47:32;;;;;;;6.30;1.70;;;25.40;99.90;;;;;;5050685;28;20191;-55
2022/08/30 08:50:01;;;;;;;11.40;1.92;;;25.00;99.90;;;;;;5051099;28;20165;-55
2022/08/30 08:55:40;;;;;;;3.80;1.90;;;25.10;99.90;;;;;;5050515;28;20291;-56
2022/08/30 08:58:06;;;;;;;6.20;1.63;;;24.80;99.90;;;;;;5050846;28;20169;-56
2022/08/30 09:00:31;;;;;;;6.60;1.80;;;24.60;99.90;;;;;;5050846;28;20649;-56
2022/08/30 09:03:01;;;;;;;7.80;1.60;;;25.00;99.90;;;;;;5050707;28;20180;-56
2022/08/30 09:05:35;;;;;;;4.78;1.58;;;24.60;99.90;;;;;;5050622;28;20267;-56
2022/08/30 09:08:07;;;;;;;7.43;1.92;;;23.60;99.90;;;;;;5050531;28;20213;-57
2022/08/30 09:10:34;;;;;;;6.43;1.80;;;23.20;99.90;;;;;;5050907;28;20180;-55
2022/08/30 09:13:00;;;;;;;8.48;1.88;;;23.10;99.90;;;;;;5050799;28;20177;-56
2022/08/30 09:15:29;;;;;;;9.05;1.90;;;22.70;99.90;;;;;;5050756;28;20169;-56
2022/08/30 09:18:04;;;;;;;6.53;1.63;;;22.40;99.90;;;;;;5050632;28;20176;-55
2022/08/30 09:20:33;;;;;;;5.38;1.65;;;22.00;99.90;;;;;;5050480;28;20177;-55
2022/08/30 09:23:13;;;;;;;9.70;1.73;;;21.80;99.90;;;;;;5053400;28;20173;-55
2022/08/30 09:25:58;;;;;;;6.15;1.80;;;21.50;99.90;;;;;;5054484;28;20173;-56
2022/08/30 09:28:28;;;;;;;5.93;2.00;;;21.50;99.90;;;;;;5054528;28;20373;-56
2022/08/30 09:31:07;;;;;;;8.82;1.50;;;21.40;99.90;;;;;;5054460;28;20165;-55
2022/08/30 09:33:35;;;;;;;9.48;1.83;;;21.50;99.90;;;;;;5054432;28;20177;-56
2022/08/30 09:36:24;;;;;;;13.05;2.10;;;21.50;99.90;;;;;;5054453;28;20173;-55
2022/08/30 09:39:04;;;;;;;9.77;1.67;;;21.40;99.90;;;;;;5054262;28;20200;-55
2022/08/30 09:41:33;;;;;;;7.13;1.40;;;21.40;99.90;;;;;;5054216;28;20250;-55
2022/08/30 09:44:29;;;;;;;11.23;1.58;;;21.20;99.90;;;;;;5054304;28;20173;-56
2022/08/30 09:47:00;;;;;;;6.55;1.65;;;21.30;99.90;;;;;;5053651;28;20588;-55
2022/08/30 09:49:39;;;;;;;9.73;1.58;;;21.40;99.90;;;;;;5053991;28;20216;-55
2022/08/30 09:52:27;;;;;;;7.05;1.80;;;21.40;99.90;;;;;;5054147;28;20219;-56
2022/08/30 09:55:20;;;;;;;8.48;1.83;;;21.90;99.90;;;;;;5052899;28;20771;-57
2022/08/30 09:58:08;;;;;;;8.55;1.80;;;22.50;99.90;;;;;;5054084;28;20262;-56
2022/08/30 10:00:45;;;;;;;11.50;1.73;;;22.70;99.90;;;;;;5054109;28;20177;-56
2022/08/30 10:03:20;;;;;;;7.40;1.70;;;22.60;99.90;;;;;;5053787;28;20177;-56
2022/08/30 10:05:46;;;;;;;6.32;1.60;;;22.50;99.90;;;;;;5053895;28;20196;-56
2022/08/30 10:08:23;;;;;;;8.02;1.85;;;22.50;99.90;;;;;;5053794;28;20702;-55
2022/08/30 10:10:58;;;;;;;6.82;1.50;;;22.40;99.90;;;;;;5053796;28;20172;-56
2022/08/30 10:13:56;;;;;;;8.50;2.08;;;22.20;99.90;;;;;;5053753;28;20164;-56
2022/08/30 10:16:33;;;;;;;7.88;1.70;;;22.20;99.90;;;;;;5053751;28;20176;-56
2022/08/30 10:19:24;;;;;;;9.23;1.95;;;22.10;99.90;;;;;;5053462;28;20632;-55
2022/08/30 10:22:31;;;;;;;9.80;1.73;;;22.10;99.90;;;;;;5053589;28;20185;-55
2022/08/30 10:25:20;;;;;;;8.27;1.90;;;22.20;99.90;;;;;;5050612;28;20548;-56
2022/08/30 10:28:20;;;;;;;9.77;1.92;;;22.00;99.90;;;;;;5053453;28;20250;-55
2022/08/30 10:31:24;;;;;;;5.60;1.40;;;22.00;99.90;;;;;;5053477;28;20216;-56
2022/08/30 10:33:55;;;;;;;8.55;1.95;;;22.60;99.90;;;;;;5052215;28;20169;-56
2022/08/30 10:36:30;;;;;;;2.35;1.30;;;23.10;99.90;;;;;;5085423;28;20232;-56
2022/08/30 10:38:57;;;;;;;8.13;2.15;;;23.90;99.90;;;;;;5053500;28;20475;-56
2022/08/30 10:41:35;;;;;;;5.63;1.70;;;23.90;99.90;;;;;;5053169;28;20234;-55
2022/08/30 10:44:18;;;;;;;5.25;1.88;;;23.60;99.90;;;;;;5053135;28;20206;-56
2022/08/30 10:47:09;;;;;;;6.43;1.83;;;23.40;99.90;;;;;;5053332;28;20650;-60
2022/08/30 10:49:39;;;;;;;5.15;1.80;;;23.10;99.90;;;;;;5052999;28;20620;-56
2022/08/30 10:52:07;;;;;;;5.13;1.50;;;23.00;99.90;;;;;;5053159;28;20200;-56
2022/08/30 10:54:43;;;;;;;6.97;1.70;;;22.90;99.90;;;;;;5053024;28;20702;-56
2022/08/30 10:57:09;;;;;;;6.72;1.65;;;22.90;99.90;;;;;;5053268;28;20222;-56
2022/08/30 10:59:38;;;;;;;5.00;1.80;;;22.90;99.90;;;;;;5052975;28;20169;-56
2022/08/30 11:02:47;;;;;;;8.55;1.48;;;22.90;99.90;;;;;;5052806;28;20291;-56
2022/08/30 11:05:35;;;;;;;7.18;1.45;;;23.20;99.90;;;;;;5052791;28;20193;-56
2022/08/30 11:08:14;;;;;;;4.30;1.67;;;23.20;99.90;;;;;;5052756;28;20240;-56
2022/08/30 11:10:51;;;;;;;4.18;1.50;;;23.20;99.90;;;;;;5052669;28;20662;-55
2022/08/30 11:13:21;;;;;;;14.60;2.05;;;23.10;99.90;;;;;;5052556;28;20184;-55
2022/08/30 11:16:02;;;;;;;11.50;2.17;;;22.90;99.90;;;;;;5052631;28;20251;-56
2022/08/30 11:18:31;;;;;;;5.40;2.15;;;22.70;99.90;;;;;;5052319;28;20248;-55
2022/08/30 11:21:35;;;;;;;6.47;1.80;;;22.80;99.90;;;;;;5052477;28;20687;-56
2022/08/30 11:24:03;;;;;;;7.85;1.85;;;22.80;99.90;;;;;;5052415;28;20173;-55
2022/08/30 11:26:44;;;;;;;4.95;2.00;;;22.30;99.90;;;;;;5052246;28;20169;-55
2022/08/30 11:29:31;;;;;;;6.05;1.55;;;22.90;99.90;;;;;;5052195;28;20213;-55
2022/08/30 11:32:11;;;;;;;9.00;1.95;;;23.20;99.90;;;;;;5052190;28;20169;-56
2022/08/30 11:34:45;;;;;;;6.10;1.85;;;23.50;99.90;;;;;;5052057;28;20173;-56
2022/08/30 11:37:40;;;;;;;5.65;1.63;;;23.80;99.90;;;;;;5051876;28;20270;-55
2022/08/30 11:40:15;;;;;;;10.05;1.85;;;23.90;99.90;;;;;;5051955;28;20310;-56
2022/08/30 11:42:46;;;;;;;9.57;1.90;;;23.80;99.90;;;;;;5052233;28;20257;-55
2022/08/30 11:45:23;;;;;;;5.88;1.55;;;23.60;99.90;;;;;;5051636;28;20721;-56
2022/08/30 11:47:55;;;;;;;5.95;1.70;;;23.40;99.90;;;;;;5051873;28;20702;-55
2022/08/30 11:50:52;;;;;;;7.38;1.67;;;23.20;99.90;;;;;;5051743;28;20196;-56
2022/08/30 11:53:43;;;;;;;4.60;1.50;;;23.00;99.90;;;;;;5051704;28;20173;-55
2022/08/30 11:56:27;;;;;;;8.07;1.80;;;22.80;99.90;;;;;;5051685;28;20173;-55
2022/08/30 11:59:14;;;;;;;5.70;1.92;;;22.70;99.90;;;;;;5051570;28;20169;-55
2022/08/30 12:01:40;;;;;;;19.08;1.92;;;22.50;99.90;;;;;;5051524;28;20226;-56
2022/08/30 12:04:08;;;;;;;9.88;2.33;;;22.40;99.90;;;;;;5051607;28;20566;-55
2022/08/30 12:07:02;;;;;;;8.32;1.83;;;22.50;99.90;;;;;;5051565;28;20176;-56
2022/08/30 12:09:29;;;;;;;5.07;1.75;;;22.70;99.90;;;;;;5051397;28;20262;-55
2022/08/30 12:12:00;;;;;;;8.48;1.42;;;22.80;99.90;;;;;;5051528;28;20173;-55
2022/08/30 12:14:53;;;;;;;5.32;1.58;;;23.00;99.90;;;;;;5051500;28;20177;-56
2022/08/30 12:20:44;;;;;;;4.65;1.60;;;23.30;99.90;;;;;;5051309;28;20232;-56
2022/08/30 12:23:40;;;;;;;16.40;1.98;;;23.20;99.90;;;;;;5051142;28;20227;-56
2022/08/30 12:26:27;;;;;;;7.25;1.35;;;23.60;99.90;;;;;;5041895;28;20327;-55
2022/08/30 12:29:16;;;;;;;4.68;1.75;;;23.60;99.90;;;;;;5051192;28;20212;-56
2022/08/30 12:31:54;;;;;;;4.82;1.50;;;23.60;99.90;;;;;;5051084;28;20164;-57
2022/08/30 12:34:19;;;;;;;6.70;1.55;;;23.50;99.90;;;;;;5051064;28;20203;-57
2022/08/30 12:37:07;;;;;;;5.38;1.55;;;23.30;99.90;;;;;;5050955;28;20217;-56
2022/08/30 12:39:42;;;;;;;7.82;1.65;;;23.10;99.90;;;;;;5051098;28;20252;-56
2022/08/30 12:42:17;;;;;;;10.65;1.73;;;22.90;99.90;;;;;;5050942;28;20168;-57
2022/08/30 12:44:43;;;;;;;8.32;1.85;;;22.80;99.90;;;;;;5050874;28;20184;-56
2022/08/30 12:47:13;;;;;;;9.25;1.70;;;22.90;99.90;;;;;;5050905;28;20177;-55
2022/08/30 12:49:40;;;;;;;6.75;1.77;;;22.90;99.90;;;;;;5049842;28;20216;-55
2022/08/30 12:52:22;;;;;;;4.50;1.65;;;22.90;99.90;;;;;;5051035;28;20188;-57
2022/08/30 12:54:49;;;;;;;10.88;1.63;;;23.00;99.90;;;;;;5051059;28;20212;-56
2022/08/30 12:57:36;;;;;;;8.88;2.00;;;23.20;99.90;;;;;;5050123;28;20204;-56
2022/08/30 13:00:05;;;;;;;12.13;2.03;;;23.40;99.90;;;;;;5050825;28;20169;-59
2022/08/30 13:02:46;;;;;;;6.32;1.75;;;23.40;99.90;;;;;;5050702;28;20659;-55
2022/08/30 13:05:41;;;;;;;5.70;1.70;;;23.40;99.90;;;;;;5050733;28;20172;-56
2022/08/30 13:08:26;;;;;;;3.72;1.83;;;23.30;99.90;;;;;;5050818;28;20275;-56
2022/08/30 13:10:58;;;;;;;9.25;1.95;;;23.20;99.90;;;;;;5050560;28;20173;-57
2022/08/30 13:13:36;;;;;;;8.25;1.77;;;23.00;99.90;;;;;;5050610;28;20684;-56